createdAt,value
2018-06-23T00:00:16.773Z,2.67
2018-06-23T00:02:44.132Z,3.13
2018-06-23T00:05:11.452Z,2.67
2018-06-23T00:07:38.728Z,3.13
2018-06-23T00:10:06.092Z,2.70
2018-06-23T00:12:33.321Z,2.53
2018-06-23T00:15:00.589Z,2.77
2018-06-23T00:17:27.844Z,3.03
2018-06-23T00:19:55.077Z,2.87
2018-06-23T00:22:22.372Z,3.00
2018-06-23T00:24:49.688Z,3.03
2018-06-23T00:27:17.024Z,3.07
2018-06-23T00:29:44.264Z,3.40
2018-06-23T00:32:11.526Z,3.13
2018-06-23T00:34:38.796Z,3.80
2018-06-23T00:37:06.112Z,4.30
2018-06-23T00:39:33.396Z,2.80
2018-06-23T00:42:00.633Z,3.53
2018-06-23T00:44:27.876Z,3.40
2018-06-23T00:46:55.120Z,3.50
2018-06-23T00:49:22.525Z,3.00
2018-06-23T00:51:49.784Z,3.60
2018-06-23T00:54:17.043Z,4.93
2018-06-23T00:56:44.324Z,3.50
2018-06-23T00:59:23.137Z,3.47
2018-06-23T01:01:50.417Z,2.80
2018-06-23T01:04:17.723Z,3.63
2018-06-23T01:06:44.964Z,3.73
2018-06-23T01:09:12.179Z,3.40
2018-06-23T01:11:39.396Z,3.50
2018-06-23T01:14:06.608Z,3.77
2018-06-23T01:16:33.936Z,3.60
2018-06-23T01:19:01.142Z,4.03
2018-06-23T01:21:28.388Z,3.50
2018-06-23T01:23:55.632Z,3.87
2018-06-23T01:26:22.873Z,4.40
2018-06-23T01:28:50.076Z,4.23
2018-06-23T01:31:17.325Z,3.93
2018-06-23T01:33:44.644Z,4.00
2018-06-23T01:36:11.912Z,4.17
2018-06-23T01:38:39.126Z,4.10
2018-06-23T01:41:06.372Z,4.17
2018-06-23T01:43:33.567Z,4.23
2018-06-23T01:46:00.796Z,3.63
2018-06-23T01:48:28.012Z,3.83
2018-06-23T01:50:55.220Z,3.70
2018-06-23T01:53:22.462Z,4.17
2018-06-23T01:55:49.678Z,4.13
2018-06-23T01:58:16.916Z,4.27
2018-06-23T02:00:44.124Z,3.73
2018-06-23T02:03:11.336Z,4.10
2018-06-23T02:05:38.559Z,3.70
2018-06-23T02:08:05.936Z,3.70
2018-06-23T02:10:33.224Z,4.60
2018-06-23T02:13:00.428Z,4.00
2018-06-23T02:15:33.301Z,3.90
2018-06-23T02:18:06.209Z,4.30
2018-06-23T02:20:39.156Z,3.93
2018-06-23T02:23:12.060Z,3.57
2018-06-23T02:25:45.021Z,4.00
2018-06-23T02:28:18.121Z,4.67
2018-06-23T02:30:51.047Z,3.73
2018-06-23T02:33:24.081Z,4.23
2018-06-23T02:35:51.277Z,3.90
2018-06-23T02:38:18.504Z,3.90
2018-06-23T02:40:45.708Z,3.33
2018-06-23T02:43:12.947Z,3.70
2018-06-23T02:45:40.181Z,4.50
2018-06-23T02:48:07.403Z,4.30
2018-06-23T02:50:34.655Z,3.97
2018-06-23T02:53:01.881Z,3.60
2018-06-23T02:55:29.172Z,3.70
2018-06-23T02:57:56.431Z,3.97
2018-06-23T03:00:23.644Z,4.03
2018-06-23T03:02:50.896Z,4.43
2018-06-23T03:05:18.124Z,4.47
2018-06-23T03:07:45.433Z,3.97
2018-06-23T03:10:12.660Z,4.10
2018-06-23T03:12:39.867Z,4.17
2018-06-23T03:15:07.072Z,4.20
2018-06-23T03:17:34.272Z,4.67
2018-06-23T03:20:01.536Z,3.97
2018-06-23T03:22:28.748Z,3.77
2018-06-23T03:24:55.973Z,4.20
2018-06-23T03:27:23.215Z,4.00
2018-06-23T03:29:50.426Z,3.80
2018-06-23T03:32:17.621Z,4.00
2018-06-23T03:34:44.824Z,5.10
2018-06-23T03:37:12.032Z,3.67
2018-06-23T03:39:39.264Z,4.30
2018-06-23T03:42:06.485Z,3.60
2018-06-23T03:44:33.708Z,5.13
2018-06-23T03:47:00.944Z,4.40
2018-06-23T03:49:28.168Z,4.80
2018-06-23T03:51:55.381Z,3.90
2018-06-23T03:54:22.612Z,4.53
2018-06-23T03:56:49.912Z,5.30
2018-06-23T03:59:17.164Z,4.03
2018-06-23T04:01:44.420Z,3.90
2018-06-23T04:04:11.660Z,4.60
2018-06-23T04:06:38.883Z,3.73
2018-06-23T04:09:07.995Z,3.97
2018-06-23T04:11:35.324Z,3.87
2018-06-23T04:14:02.472Z,3.90
2018-06-23T04:16:29.684Z,3.67
2018-06-23T04:18:57.701Z,3.60
2018-06-23T04:21:25.900Z,3.90
2018-06-23T04:23:53.096Z,3.40
2018-06-23T04:26:20.320Z,3.63
2018-06-23T04:28:47.520Z,3.27
2018-06-23T04:31:14.740Z,3.27
2018-06-23T04:33:42.312Z,4.10
2018-06-23T04:36:09.712Z,5.03
2018-06-23T04:38:37.020Z,4.10
2018-06-23T04:41:04.276Z,4.87
2018-06-23T04:43:31.521Z,4.43
2018-06-23T04:45:58.724Z,3.93
2018-06-23T04:48:25.948Z,4.23
2018-06-23T04:50:53.172Z,3.63
2018-06-23T04:53:20.387Z,4.63
2018-06-23T04:55:48.011Z,3.80
2018-06-23T04:58:15.224Z,4.17
2018-06-23T05:00:42.428Z,3.57
2018-06-23T05:03:09.620Z,4.27
2018-06-23T05:05:36.900Z,4.07
2018-06-23T05:08:04.095Z,4.20
2018-06-23T05:10:31.307Z,4.40
2018-06-23T05:12:58.500Z,4.77
2018-06-23T05:15:25.712Z,5.23
2018-06-23T05:17:52.924Z,4.90
2018-06-23T05:20:20.287Z,4.80
2018-06-23T05:22:47.399Z,4.60
2018-06-23T05:25:14.727Z,3.97
2018-06-23T05:27:41.976Z,5.10
2018-06-23T05:30:09.200Z,4.37
2018-06-23T05:32:36.417Z,4.60
2018-06-23T05:35:03.654Z,4.63
2018-06-23T05:37:31.111Z,4.60
2018-06-23T05:39:58.889Z,5.10
2018-06-23T05:42:26.118Z,5.07
2018-06-23T05:44:53.387Z,5.20
2018-06-23T05:47:20.801Z,5.03
2018-06-23T05:49:48.028Z,4.90
2018-06-23T05:52:15.248Z,5.20
2018-06-23T05:54:42.519Z,5.20
2018-06-23T05:57:09.784Z,4.70
2018-06-23T05:59:36.980Z,6.07
2018-06-23T06:02:04.232Z,5.47
2018-06-23T06:04:31.472Z,5.00
2018-06-23T06:06:58.707Z,5.30
2018-06-23T06:09:25.947Z,5.20
2018-06-23T06:11:53.156Z,5.20
2018-06-23T06:14:20.416Z,5.67
2018-06-23T06:17:25.100Z,5.57
2018-06-23T06:19:56.431Z,5.73
2018-06-23T06:22:25.013Z,6.30
2018-06-23T06:24:52.236Z,5.10
2018-06-23T06:27:19.452Z,4.83
2018-06-23T06:29:46.696Z,4.73
2018-06-23T06:32:13.983Z,5.60
2018-06-23T06:34:41.192Z,8.67
2018-06-23T06:37:08.416Z,4.43
2018-06-23T06:39:35.664Z,6.07
2018-06-23T06:42:03.219Z,5.10
2018-06-23T06:44:30.448Z,4.80
2018-06-23T06:46:57.856Z,5.67
2018-06-23T06:49:25.080Z,4.90
2018-06-23T06:51:52.819Z,4.30
2018-06-23T06:54:20.056Z,5.27
2018-06-23T06:56:47.740Z,4.90
2018-06-23T06:59:14.980Z,4.90
2018-06-23T07:01:42.212Z,4.50
2018-06-23T07:04:09.424Z,5.33
2018-06-23T07:06:37.179Z,6.10
2018-06-23T07:09:07.832Z,5.10
2018-06-23T07:11:35.053Z,5.00
2018-06-23T07:14:02.380Z,4.93
2018-06-23T07:16:29.596Z,6.13
2018-06-23T07:18:56.860Z,5.73
2018-06-23T07:21:24.064Z,4.83
2018-06-23T07:23:51.375Z,5.63
2018-06-23T07:26:18.504Z,6.10
2018-06-23T07:28:45.771Z,5.13
2018-06-23T07:31:12.963Z,5.57
2018-06-23T07:33:40.180Z,6.23
2018-06-23T07:36:07.401Z,5.70
2018-06-23T07:38:34.785Z,5.13
2018-06-23T07:41:02.068Z,5.40
2018-06-23T07:43:29.276Z,5.53
2018-06-23T07:45:56.604Z,4.87
2018-06-23T07:48:23.824Z,5.90
2018-06-23T07:50:51.080Z,5.13
2018-06-23T07:53:18.364Z,5.50
2018-06-23T07:55:45.599Z,5.90
2018-06-23T07:58:13.074Z,4.53
2018-06-23T08:00:40.280Z,5.37
2018-06-23T08:03:07.507Z,5.60
2018-06-23T08:05:34.801Z,6.00
2018-06-23T08:08:02.076Z,5.83
2018-06-23T08:10:29.287Z,5.47
2018-06-23T08:12:56.492Z,5.50
2018-06-23T08:15:23.712Z,6.43
2018-06-23T08:17:51.196Z,4.80
2018-06-23T08:20:18.392Z,5.17
2018-06-23T08:22:45.607Z,5.10
2018-06-23T08:25:12.828Z,5.20
2018-06-23T08:27:40.057Z,4.87
2018-06-23T08:30:07.264Z,4.70
2018-06-23T08:32:34.541Z,4.50
2018-06-23T08:35:01.804Z,4.93
2018-06-23T08:37:29.032Z,4.80
2018-06-23T08:39:56.228Z,4.93
2018-06-23T08:42:23.440Z,5.77
2018-06-23T08:44:50.663Z,3.53
2018-06-23T08:47:17.897Z,4.40
2018-06-23T08:49:45.089Z,3.93
2018-06-23T08:52:12.336Z,3.77
2018-06-23T08:54:39.592Z,3.33
2018-06-23T08:57:06.800Z,3.50
2018-06-23T08:59:34.000Z,3.63
2018-06-23T09:02:01.292Z,3.50
2018-06-23T09:04:28.512Z,3.10
2018-06-23T09:06:55.790Z,3.60
2018-06-23T09:09:23.119Z,3.60
2018-06-23T09:11:50.324Z,4.07
2018-06-23T09:14:17.532Z,3.70
2018-06-23T09:16:44.789Z,3.77
2018-06-23T09:19:11.995Z,3.47
2018-06-23T09:21:39.187Z,4.10
2018-06-23T09:24:06.407Z,4.07
2018-06-23T09:26:33.636Z,4.77
2018-06-23T09:29:00.862Z,4.03
2018-06-23T09:31:28.060Z,4.20
2018-06-23T09:33:55.312Z,3.73
2018-06-23T09:36:22.553Z,3.83
2018-06-23T09:38:49.847Z,4.00
2018-06-23T09:41:17.063Z,3.40
2018-06-23T09:43:44.302Z,4.53
2018-06-23T09:46:11.545Z,4.00
2018-06-23T09:48:38.832Z,4.13
2018-06-23T09:51:06.042Z,3.40
2018-06-23T09:53:33.264Z,3.63
2018-06-23T09:56:00.513Z,3.10
2018-06-23T09:58:27.764Z,3.90
2018-06-23T10:00:54.971Z,3.73
2018-06-23T10:03:22.192Z,4.07
2018-06-23T10:05:49.444Z,4.13
2018-06-23T10:08:16.659Z,4.03
2018-06-23T10:10:43.885Z,3.73
2018-06-23T10:13:11.104Z,4.60
2018-06-23T10:15:38.321Z,4.40
2018-06-23T10:18:05.518Z,4.23
2018-06-23T10:20:32.735Z,4.00
2018-06-23T10:22:59.962Z,3.20
2018-06-23T10:25:27.188Z,3.40
2018-06-23T10:27:54.396Z,4.03
2018-06-23T10:30:21.603Z,4.37
2018-06-23T10:32:48.840Z,5.33
2018-06-23T10:35:16.048Z,4.37
2018-06-23T10:37:43.271Z,5.23
2018-06-23T10:40:10.721Z,4.10
2018-06-23T10:42:37.970Z,4.17
2018-06-23T10:45:05.184Z,4.57
2018-06-23T10:47:32.830Z,4.80
2018-06-23T10:50:00.191Z,5.57
2018-06-23T10:52:27.628Z,4.23
2018-06-23T10:54:54.819Z,4.33
2018-06-23T10:57:22.045Z,3.77
2018-06-23T10:59:49.301Z,3.93
2018-06-23T11:02:16.728Z,3.60
2018-06-23T11:04:44.090Z,4.57
2018-06-23T11:07:11.348Z,5.40
2018-06-23T11:09:38.768Z,5.53
2018-06-23T11:12:05.988Z,5.00
2018-06-23T11:14:33.244Z,6.93
2018-06-23T11:17:00.537Z,6.70
2018-06-23T11:19:27.760Z,6.83
2018-06-23T11:21:55.025Z,6.27
2018-06-23T11:24:22.283Z,5.30
2018-06-23T11:26:49.579Z,5.07
2018-06-23T11:29:16.839Z,4.67
2018-06-23T11:31:44.092Z,5.40
2018-06-23T11:34:11.319Z,4.50
2018-06-23T11:36:38.675Z,4.70
2018-06-23T11:39:07.425Z,4.87
2018-06-23T11:41:34.665Z,5.40
2018-06-23T11:44:02.109Z,5.60
2018-06-23T11:46:29.374Z,6.20
2018-06-23T11:48:56.644Z,5.27
2018-06-23T11:51:23.888Z,5.77
2018-06-23T11:53:51.197Z,5.90
2018-06-23T11:56:18.419Z,5.57
2018-06-23T11:58:46.598Z,5.30
2018-06-23T12:01:13.915Z,5.80
2018-06-23T12:03:41.119Z,5.67
2018-06-23T12:06:08.413Z,5.43
2018-06-23T12:08:35.632Z,6.03
2018-06-23T12:11:02.883Z,7.03
2018-06-23T12:13:30.127Z,6.73
2018-06-23T12:15:57.468Z,5.97
2018-06-23T12:18:24.684Z,6.70
2018-06-23T12:20:52.029Z,6.00
2018-06-23T12:23:19.275Z,5.63
2018-06-23T12:25:46.548Z,5.30
2018-06-23T12:28:13.960Z,5.20
2018-06-23T12:30:41.335Z,5.00
2018-06-23T12:33:08.584Z,5.27
2018-06-23T12:35:35.828Z,5.40
2018-06-23T12:38:03.088Z,5.67
2018-06-23T12:40:30.404Z,6.10
2018-06-23T12:42:57.631Z,5.50
2018-06-23T12:45:24.868Z,5.77
2018-06-23T12:47:52.091Z,5.57
2018-06-23T12:50:19.437Z,5.23
2018-06-23T12:52:46.711Z,5.80
2018-06-23T12:55:14.023Z,5.80
2018-06-23T12:57:41.244Z,5.43
2018-06-23T13:00:08.541Z,5.47
2018-06-23T13:02:35.888Z,5.30
2018-06-23T13:05:03.481Z,5.50
2018-06-23T13:07:30.793Z,5.50
2018-06-23T13:09:58.051Z,5.77
2018-06-23T13:12:25.302Z,5.63
2018-06-23T13:14:52.541Z,5.90
2018-06-23T13:17:19.824Z,5.50
2018-06-23T13:19:47.054Z,5.37
2018-06-23T13:22:14.375Z,5.30
2018-06-23T13:24:41.615Z,5.20
2018-06-23T13:27:08.884Z,5.67
2018-06-23T13:29:36.179Z,5.67
2018-06-23T13:32:03.443Z,6.27
2018-06-23T13:34:30.740Z,6.57
2018-06-23T13:36:57.950Z,5.80
2018-06-23T13:39:25.309Z,6.20
2018-06-23T13:41:52.520Z,6.10
2018-06-23T13:44:19.843Z,5.50
2018-06-23T13:46:48.117Z,5.70
2018-06-23T13:49:15.401Z,7.30
2018-06-23T13:51:42.649Z,6.37
2018-06-23T13:54:09.947Z,5.90
2018-06-23T13:56:37.235Z,6.20
2018-06-23T13:59:04.569Z,6.30
2018-06-23T14:01:31.824Z,6.40
2018-06-23T14:03:59.146Z,5.17
2018-06-23T14:06:26.472Z,5.53
2018-06-23T14:08:53.742Z,6.27
2018-06-23T14:11:21.205Z,6.17
2018-06-23T14:13:48.573Z,7.00
2018-06-23T14:16:15.884Z,6.10
2018-06-23T14:18:43.219Z,5.80
2018-06-23T14:21:10.486Z,5.37
2018-06-23T14:23:37.728Z,5.80
2018-06-23T14:26:04.992Z,6.80
2018-06-23T14:28:32.271Z,5.23
2018-06-23T14:30:59.484Z,5.47
2018-06-23T14:33:26.773Z,5.63
2018-06-23T14:35:53.996Z,5.70
2018-06-23T14:38:21.223Z,5.17
2018-06-23T14:40:48.608Z,5.07
2018-06-23T14:43:15.845Z,5.10
2018-06-23T14:45:43.112Z,4.90
2018-06-23T14:48:10.351Z,4.70
2018-06-23T14:50:37.609Z,4.53
2018-06-23T14:53:04.868Z,4.53
2018-06-23T14:55:32.193Z,5.50
2018-06-23T14:57:59.448Z,4.40
2018-06-23T15:00:26.756Z,4.17
2018-06-23T15:02:53.975Z,4.63
2018-06-23T15:05:21.282Z,5.00
2018-06-23T15:07:48.519Z,4.67
2018-06-23T15:11:27.932Z,4.73
2018-06-23T15:13:55.184Z,4.07
2018-06-23T15:16:22.395Z,4.30
2018-06-23T15:18:49.632Z,4.10
2018-06-23T15:21:16.901Z,5.37
2018-06-23T15:23:44.138Z,5.07
2018-06-23T15:26:11.376Z,4.40
2018-06-23T15:28:38.628Z,4.50
2018-06-23T15:31:05.835Z,4.73
2018-06-23T15:33:33.122Z,4.50
2018-06-23T15:36:00.333Z,4.50
2018-06-23T15:38:27.557Z,4.00
2018-06-23T15:40:54.806Z,3.87
2018-06-23T15:43:22.076Z,4.67
2018-06-23T15:45:49.344Z,4.57
2018-06-23T15:48:16.644Z,4.83
2018-06-23T15:50:43.969Z,4.67
2018-06-23T15:53:11.193Z,4.03
2018-06-23T15:55:38.688Z,4.40
2018-06-23T15:58:05.912Z,4.63
2018-06-23T16:00:33.139Z,3.80
2018-06-23T16:03:00.395Z,4.13
2018-06-23T16:05:27.627Z,4.50
2018-06-23T16:07:54.851Z,4.43
2018-06-23T16:10:24.824Z,3.90
2018-06-23T16:12:52.839Z,3.53
2018-06-23T16:15:20.073Z,3.60
2018-06-23T16:17:47.408Z,4.00
2018-06-23T16:20:14.924Z,4.00
2018-06-23T16:22:42.469Z,3.23
2018-06-23T16:25:09.732Z,4.50
2018-06-23T16:27:36.940Z,3.73
2018-06-23T16:30:04.528Z,4.23
2018-06-23T16:32:31.739Z,3.93
2018-06-23T16:34:59.125Z,4.10
2018-06-23T16:37:27.089Z,3.70
2018-06-23T16:39:54.440Z,4.13
2018-06-23T16:42:21.651Z,3.80
2018-06-23T16:44:48.925Z,4.10
2018-06-23T16:47:16.200Z,3.80
2018-06-23T16:49:43.439Z,4.13
2018-06-23T16:52:10.914Z,4.10
2018-06-23T16:54:38.230Z,3.60
2018-06-23T16:57:05.476Z,3.57
2018-06-23T16:59:32.756Z,5.23
2018-06-23T17:02:00.026Z,4.40
2018-06-23T17:04:27.318Z,4.73
2018-06-23T17:06:54.479Z,4.60
2018-06-23T17:09:21.720Z,4.70
2018-06-23T17:11:49.000Z,4.10
2018-06-23T17:14:16.316Z,4.20
2018-06-23T17:16:43.512Z,3.40
2018-06-23T17:19:10.760Z,4.57
2018-06-23T17:21:37.985Z,3.60
2018-06-23T17:24:05.249Z,3.93
2018-06-23T17:26:32.488Z,4.40
2018-06-23T17:28:59.741Z,3.70
2018-06-23T17:31:26.985Z,4.87
2018-06-23T17:33:54.217Z,4.27
2018-06-23T17:36:21.407Z,3.93
2018-06-23T17:38:48.644Z,3.73
2018-06-23T17:41:16.039Z,3.73
2018-06-23T17:43:43.292Z,4.10
2018-06-23T17:46:10.539Z,3.63
2018-06-23T17:48:37.771Z,4.23
2018-06-23T17:51:05.351Z,3.60
2018-06-23T17:53:32.564Z,4.53
2018-06-23T17:55:59.764Z,4.20
2018-06-23T17:58:27.004Z,5.03
2018-06-23T18:00:54.296Z,4.10
2018-06-23T18:03:21.483Z,4.90
2018-06-23T18:05:48.680Z,5.50
2018-06-23T18:08:15.932Z,5.23
2018-06-23T18:10:43.187Z,4.70
2018-06-23T18:13:10.407Z,5.73
2018-06-23T18:15:37.816Z,5.90
2018-06-23T18:18:05.064Z,5.77
2018-06-23T18:20:32.271Z,5.83
2018-06-23T18:22:59.510Z,7.47
2018-06-23T18:25:26.731Z,6.80
2018-06-23T18:27:53.961Z,7.60
2018-06-23T18:30:21.156Z,6.23
2018-06-23T18:32:48.393Z,6.43
2018-06-23T18:35:15.636Z,6.97
2018-06-23T18:37:42.875Z,6.77
2018-06-23T18:40:10.088Z,6.70
2018-06-23T18:42:37.843Z,7.07
2018-06-23T18:45:05.107Z,7.20
2018-06-23T18:47:32.319Z,7.80
2018-06-23T18:49:59.691Z,6.87
2018-06-23T18:52:26.903Z,6.93
2018-06-23T18:54:54.095Z,6.50
2018-06-23T18:57:21.342Z,7.80
2018-06-23T18:59:48.552Z,7.83
2018-06-23T19:02:15.804Z,8.10
2018-06-23T19:04:43.016Z,7.33
2018-06-23T19:07:10.348Z,7.00
2018-06-23T19:09:37.536Z,7.90
2018-06-23T19:12:04.871Z,7.97
2018-06-23T19:14:32.085Z,8.37
2018-06-23T19:16:59.315Z,7.60
2018-06-23T19:19:26.524Z,7.50
2018-06-23T19:21:53.757Z,7.67
2018-06-23T19:24:20.996Z,7.10
2018-06-23T19:26:48.196Z,7.53
2018-06-23T19:29:15.441Z,7.77
2018-06-23T19:31:42.656Z,7.40
2018-06-23T19:34:09.871Z,7.60
2018-06-23T19:36:37.175Z,7.43
2018-06-23T19:39:07.088Z,8.07
2018-06-23T19:41:34.351Z,7.37
2018-06-23T19:44:01.574Z,8.47
2018-06-23T19:46:28.776Z,8.30
2018-06-23T19:48:55.993Z,8.30
2018-06-23T19:51:23.244Z,9.03
2018-06-23T19:53:50.477Z,7.37
2018-06-23T19:56:17.748Z,7.53
2018-06-23T19:58:44.960Z,8.47
2018-06-23T20:01:12.192Z,8.30
2018-06-23T20:03:39.405Z,8.23
2018-06-23T20:06:07.060Z,8.57
2018-06-23T20:08:34.256Z,8.50
2018-06-23T20:11:01.467Z,7.70
2018-06-23T20:13:28.824Z,7.90
2018-06-23T20:15:56.322Z,8.83
2018-06-23T20:18:23.540Z,7.83
2018-06-23T20:20:50.963Z,8.77
2018-06-23T20:23:18.168Z,9.43
2018-06-23T20:25:46.313Z,8.53
2018-06-23T20:28:13.512Z,9.60
2018-06-23T20:30:40.720Z,9.80
2018-06-23T20:33:07.928Z,10.20
2018-06-23T20:35:35.156Z,10.47
2018-06-23T20:38:02.460Z,10.80
2018-06-23T20:40:29.663Z,10.23
2018-06-23T20:42:56.908Z,9.60
2018-06-23T20:45:24.104Z,9.57
2018-06-23T20:47:51.340Z,8.57
2018-06-23T20:50:18.603Z,9.13
2018-06-23T20:52:45.840Z,8.33
2018-06-23T20:55:13.066Z,9.73
2018-06-23T20:57:40.350Z,11.00
2018-06-23T21:00:07.598Z,10.67
2018-06-23T21:02:34.817Z,10.50
2018-06-23T21:05:02.068Z,15.47
2018-06-23T21:07:29.399Z,15.63
2018-06-23T21:09:56.512Z,17.40
2018-06-23T21:12:23.716Z,16.10
2018-06-23T21:14:50.956Z,23.77
2018-06-23T21:17:18.204Z,34.00
2018-06-23T21:19:45.424Z,33.03
2018-06-23T21:22:12.652Z,22.37
2018-06-23T21:24:40.081Z,14.27
2018-06-23T21:27:07.635Z,11.37
2018-06-23T21:29:34.864Z,11.13
2018-06-23T21:32:02.108Z,24.53
2018-06-23T21:34:29.328Z,22.10
2018-06-23T21:36:56.524Z,21.27
2018-06-23T21:39:23.755Z,13.50
2018-06-23T21:41:50.964Z,13.30
2018-06-23T21:44:18.304Z,13.40
2018-06-23T21:46:45.548Z,14.40
2018-06-23T21:49:12.772Z,13.27
2018-06-23T21:51:40.036Z,13.07
2018-06-23T21:54:07.309Z,12.43
2018-06-23T21:56:34.652Z,10.37
2018-06-23T21:59:01.952Z,10.93
2018-06-23T22:01:29.176Z,9.33
2018-06-23T22:03:56.431Z,10.10
2018-06-23T22:06:23.743Z,10.90
2018-06-23T22:08:50.948Z,9.87
2018-06-23T22:11:19.199Z,10.27
2018-06-23T22:13:46.432Z,10.27
2018-06-23T22:16:13.716Z,9.77
2018-06-23T22:18:40.944Z,10.70
2018-06-23T22:21:08.176Z,10.17
2018-06-23T22:23:35.399Z,9.80
2018-06-23T22:26:02.692Z,8.83
2018-06-23T22:28:29.947Z,9.20
2018-06-23T22:30:57.203Z,9.67
2018-06-23T22:33:24.432Z,9.60
2018-06-23T22:35:51.663Z,9.30
2018-06-23T22:38:18.936Z,8.70
2018-06-23T22:40:46.138Z,9.70
2018-06-23T22:43:13.391Z,10.50
2018-06-23T22:45:40.708Z,8.90
2018-06-23T22:48:07.924Z,9.80
2018-06-23T22:50:35.194Z,9.40
2018-06-23T22:53:02.425Z,9.03
2018-06-23T22:55:29.647Z,9.13
2018-06-23T22:57:56.871Z,8.50
2018-06-23T23:00:25.109Z,8.03
2018-06-23T23:02:52.328Z,9.80
2018-06-23T23:05:19.575Z,8.47
2018-06-23T23:07:46.892Z,9.20
2018-06-23T23:10:14.204Z,8.73
2018-06-23T23:12:41.596Z,8.00
2018-06-23T23:15:08.793Z,8.23
2018-06-23T23:17:36.032Z,8.77
2018-06-23T23:20:03.741Z,8.33
2018-06-23T23:22:31.114Z,9.33
2018-06-23T23:24:58.364Z,7.63
2018-06-23T23:27:25.688Z,7.50
2018-06-23T23:29:52.956Z,9.70
2018-06-23T23:32:20.188Z,8.40
2018-06-23T23:34:47.623Z,8.97
2018-06-23T23:37:14.928Z,8.10
2018-06-23T23:39:42.172Z,9.43
2018-06-23T23:42:09.408Z,9.20
2018-06-23T23:44:36.765Z,9.17
2018-06-23T23:47:04.000Z,8.00
2018-06-23T23:49:31.247Z,10.10
2018-06-23T23:51:58.524Z,9.33
2018-06-23T23:54:25.736Z,8.70
2018-06-23T23:56:52.987Z,8.87
2018-06-23T23:59:20.190Z,8.47
